Time;durP1;ratioP1;P1;durP2;ratioP2;P2;SDS_P1;SDS_P2;PMS_P1;PMS_P2;Temp;Humidity;BMP_temperature;BMP_pressure;BME280_temperature;BME280_humidity;BME280_pressure;Samples;Min_cycle;Max_cycle;Signal;HPM_P1;HPM_P2
2021/12/04 00:01:41;;;;;;;48.03;27.65;;;;;;;;;;5045855;27;20043;-78
2021/12/04 00:04:07;;;;;;;52.80;26.75;;;;;;;;;;5058047;28;20493;-78
2021/12/04 00:06:39;;;;;;;45.78;26.52;;;;;;;;;;5047411;28;20066;-78
2021/12/04 00:09:06;;;;;;;50.72;27.02;;;;;;;;;;5042060;28;20080;-78
2021/12/04 00:11:33;;;;;;;43.80;26.05;;;;;;;;;;5046490;28;20057;-78
2021/12/04 00:13:59;;;;;;;46.20;25.88;;;;;;;;;;5059530;28;20058;-78
2021/12/04 00:16:26;;;;;;;45.60;25.67;;;;;;;;;;5064326;28;20098;-78
2021/12/04 00:18:56;;;;;;;52.88;26.73;;;;;;;;;;5076837;27;20051;-78
2021/12/04 00:21:23;;;;;;;49.72;25.85;;;;;;;;;;5064122;28;20047;-79
2021/12/04 00:23:57;;;;;;;54.20;27.67;;;;;;;;;;5064281;27;20055;-78
2021/12/04 00:26:23;;;;;;;46.33;26.42;;;;;;;;;;5093218;27;20470;-78
2021/12/04 00:28:50;;;;;;;47.65;25.60;;;;;;;;;;5098140;27;20871;-78
2021/12/04 00:31:16;;;;;;;47.30;25.77;;;;;;;;;;5091887;27;22857;-78
2021/12/04 00:33:45;;;;;;;50.42;26.30;;;;;;;;;;5075771;28;20082;-78
2021/12/04 00:36:26;;;;;;;53.90;26.38;;;;;;;;;;5074957;27;20058;-78
2021/12/04 00:49:51;;;;;;;56.20;26.85;;;;;;;;;;5078047;28;20039;-78
2021/12/04 00:52:18;;;;;;;53.90;26.60;;;;;;;;;;5043263;28;20262;-78
2021/12/04 00:57:47;;;;;;;50.90;26.88;;;;;;;;;;5063050;27;20439;-78
2021/12/04 01:00:13;;;;;;;54.85;27.02;;;;;;;;;;5060200;27;20366;-78
2021/12/04 01:02:39;;;;;;;51.53;26.17;;;;;;;;;;5063487;28;20046;-78
2021/12/04 01:05:05;;;;;;;53.75;25.80;;;;;;;;;;5059603;27;20093;-78
2021/12/04 01:07:33;;;;;;;55.60;25.65;;;;;;;;;;5078917;27;20482;-78
2021/12/04 01:10:00;;;;;;;54.35;27.73;;;;;;;;;;5044081;28;20134;-78
2021/12/04 01:12:32;;;;;;;59.00;26.73;;;;;;;;;;5073642;28;20044;-78
2021/12/04 01:14:58;;;;;;;53.20;27.20;;;;;;;;;;5077059;28;20047;-77
2021/12/04 01:17:24;;;;;;;57.92;27.08;;;;;;;;;;5044146;27;20135;-78
2021/12/04 01:19:51;;;;;;;56.92;27.50;;;;;;;;;;5061815;27;20047;-78
2021/12/04 01:22:20;;;;;;;56.92;26.27;;;;;;;;;;5056939;27;20059;-78
2021/12/04 01:24:50;;;;;;;51.30;26.23;;;;;;;;;;5090945;27;20036;-77
2021/12/04 01:27:16;;;;;;;52.88;24.85;;;;;;;;;;5041905;28;20751;-78
2021/12/04 01:29:45;;;;;;;57.30;26.92;;;;;;;;;;5079713;28;20047;-78
2021/12/04 01:32:11;;;;;;;49.50;25.75;;;;;;;;;;5072425;28;20378;-78
2021/12/04 01:34:40;;;;;;;46.95;24.10;;;;;;;;;;5078542;27;20785;-78
2021/12/04 01:37:06;;;;;;;;;;;;;;;;;;5073998;28;20046;-78
2021/12/04 01:39:32;;;;;;;45.45;22.90;;;;;;;;;;5061041;27;19919;-78
2021/12/04 01:42:10;;;;;;;40.60;22.33;;;;;;;;;;5042017;28;20093;-78
2021/12/04 01:44:37;;;;;;;42.15;22.88;;;;;;;;;;5063800;27;20052;-78
2021/12/04 01:47:12;;;;;;;41.03;23.33;;;;;;;;;;5038389;27;20039;-78
2021/12/04 01:49:38;;;;;;;42.85;22.98;;;;;;;;;;5061448;27;20049;-78
2021/12/04 01:52:10;;;;;;;39.67;23.83;;;;;;;;;;5059166;27;20423;-78
2021/12/04 01:54:40;;;;;;;42.15;23.00;;;;;;;;;;5062059;28;20099;-78
2021/12/04 01:57:11;;;;;;;37.97;22.77;;;;;;;;;;5056206;28;20054;-78
2021/12/04 01:59:37;;;;;;;37.38;23.05;;;;;;;;;;5045527;28;20046;-78
2021/12/04 02:02:06;;;;;;;39.30;23.42;;;;;;;;;;5069957;27;20051;-78
2021/12/04 02:04:32;;;;;;;37.70;22.40;;;;;;;;;;5063029;28;20051;-79
2021/12/04 02:07:03;;;;;;;38.28;23.65;;;;;;;;;;5074541;28;20054;-79
2021/12/04 02:09:30;;;;;;;36.65;23.00;;;;;;;;;;5063415;28;20054;-78
2021/12/04 02:11:59;;;;;;;37.13;22.88;;;;;;;;;;5074352;28;20047;-79
2021/12/04 02:14:25;;;;;;;34.78;23.48;;;;;;;;;;5079553;28;20073;-78
2021/12/04 02:16:51;;;;;;;33.42;22.35;;;;;;;;;;5044283;28;20040;-79
2021/12/04 02:19:18;;;;;;;33.65;22.25;;;;;;;;;;5073376;28;20182;-78
2021/12/04 02:21:44;;;;;;;33.95;23.25;;;;;;;;;;5045266;28;20048;-78
2021/12/04 02:24:10;;;;;;;34.92;22.98;;;;;;;;;;5039886;28;20055;-79
2021/12/04 02:26:36;;;;;;;35.35;22.15;;;;;;;;;;5043351;28;20078;-79
2021/12/04 02:29:08;;;;;;;35.65;23.30;;;;;;;;;;5059640;28;20067;-78
2021/12/04 02:31:34;;;;;;;34.72;23.05;;;;;;;;;;5077737;28;20319;-78
2021/12/04 02:34:00;;;;;;;30.70;22.67;;;;;;;;;;5073657;28;20035;-78
2021/12/04 02:36:28;;;;;;;30.70;21.60;;;;;;;;;;5061930;28;20079;-78
2021/12/04 02:38:54;;;;;;;30.83;21.92;;;;;;;;;;5079676;28;20051;-78
2021/12/04 02:41:21;;;;;;;29.15;20.75;;;;;;;;;;5073413;28;20044;-78
2021/12/04 02:43:48;;;;;;;29.38;20.75;;;;;;;;;;5091734;28;20051;-79
2021/12/04 02:46:15;;;;;;;29.40;19.67;;;;;;;;;;5058491;28;20578;-79
2021/12/04 02:48:42;;;;;;;26.27;20.35;;;;;;;;;;5060333;28;20066;-78
2021/12/04 02:51:08;;;;;;;27.30;20.35;;;;;;;;;;5041937;28;20047;-79
2021/12/04 02:53:34;;;;;;;28.88;20.02;;;;;;;;;;5060722;28;20133;-79
2021/12/04 02:56:00;;;;;;;28.00;19.45;;;;;;;;;;5044907;28;20455;-78
2021/12/04 02:58:27;;;;;;;28.05;21.05;;;;;;;;;;5047018;28;20371;-79
2021/12/04 03:00:53;;;;;;;31.63;20.05;;;;;;;;;;5078861;28;20999;-78
2021/12/04 03:03:20;;;;;;;25.30;19.05;;;;;;;;;;5039387;28;20495;-78
2021/12/04 03:05:49;;;;;;;25.67;18.40;;;;;;;;;;5092679;28;21563;-79
2021/12/04 03:08:16;;;;;;;24.50;18.02;;;;;;;;;;5058960;28;20067;-78
2021/12/04 03:10:42;;;;;;;23.55;17.50;;;;;;;;;;5060442;28;20808;-78
2021/12/04 03:13:11;;;;;;;21.67;17.27;;;;;;;;;;5074836;28;20616;-79
2021/12/04 03:15:38;;;;;;;21.77;16.98;;;;;;;;;;5077263;28;20058;-78
2021/12/04 03:18:05;;;;;;;21.17;16.50;;;;;;;;;;5092275;28;20040;-78
2021/12/04 03:20:41;;;;;;;21.17;16.33;;;;;;;;;;5059926;28;20044;-78
2021/12/04 03:23:13;;;;;;;20.10;15.63;;;;;;;;;;5041079;28;20060;-78
2021/12/04 03:25:39;;;;;;;21.23;16.65;;;;;;;;;;5019069;28;20455;-79
2021/12/04 03:28:07;;;;;;;20.42;16.08;;;;;;;;;;5030974;28;20040;-79
2021/12/04 03:30:42;;;;;;;18.42;15.18;;;;;;;;;;5023595;28;20381;-78
2021/12/04 03:41:17;;;;;;;;;;;;;;;;;;5050257;28;20044;-79
2021/12/04 03:43:44;;;;;;;18.63;14.50;;;;;;;;;;5052923;28;20019;-79
2021/12/04 03:46:14;;;;;;;19.90;15.20;;;;;;;;;;5036952;28;20041;-78
2021/12/04 03:51:09;;;;;;;19.63;15.15;;;;;;;;;;5050119;28;20040;-78
2021/12/04 03:53:35;;;;;;;20.70;14.77;;;;;;;;;;5058129;28;20055;-78
2021/12/04 03:56:02;;;;;;;19.13;15.13;;;;;;;;;;5057427;28;20466;-78
2021/12/04 03:58:28;;;;;;;20.00;15.10;;;;;;;;;;5057237;28;20136;-78
2021/12/04 04:00:54;;;;;;;20.90;14.80;;;;;;;;;;5058240;28;20060;-79
2021/12/04 04:03:20;;;;;;;21.67;15.07;;;;;;;;;;5053796;28;20068;-78
2021/12/04 04:05:46;;;;;;;21.23;15.05;;;;;;;;;;5040084;28;20079;-78
2021/12/04 04:08:14;;;;;;;24.40;15.73;;;;;;;;;;5034855;28;20049;-79
2021/12/04 04:10:41;;;;;;;21.63;14.68;;;;;;;;;;5039122;28;20492;-79
2021/12/04 04:13:11;;;;;;;24.73;14.57;;;;;;;;;;5018445;28;20040;-79
2021/12/04 04:15:37;;;;;;;22.60;14.98;;;;;;;;;;5040320;28;20313;-79
2021/12/04 04:18:04;;;;;;;22.75;14.88;;;;;;;;;;5037784;28;20037;-79
2021/12/04 04:20:31;;;;;;;20.00;14.82;;;;;;;;;;5040629;28;20467;-79
2021/12/04 04:22:57;;;;;;;23.55;15.48;;;;;;;;;;5045394;28;20442;-78
2021/12/04 04:25:23;;;;;;;21.10;14.98;;;;;;;;;;5078070;28;20131;-79
2021/12/04 04:27:49;;;;;;;27.85;16.27;;;;;;;;;;5073046;28;20040;-79
2021/12/04 04:30:16;;;;;;;23.30;15.30;;;;;;;;;;5076455;28;20032;-78
2021/12/04 04:32:42;;;;;;;24.67;15.48;;;;;;;;;;5059685;28;20118;-79
2021/12/04 04:35:12;;;;;;;24.50;16.00;;;;;;;;;;5072932;28;20048;-78
2021/12/04 04:37:56;;;;;;;24.67;15.35;;;;;;;;;;5044302;28;20044;-78
2021/12/04 05:15:17;;;;;;;24.33;15.82;;;;;;;;;;5069714;28;20134;-79
2021/12/04 05:20:32;;;;;;;23.25;15.07;;;;;;;;;;5071939;28;20126;-79
2021/12/04 05:22:58;;;;;;;26.00;16.63;;;;;;;;;;5061745;28;20169;-77
2021/12/04 05:25:25;;;;;;;27.75;15.95;;;;;;;;;;5056770;28;20048;-78
2021/12/04 05:27:51;;;;;;;25.52;15.05;;;;;;;;;;5055600;28;20114;-78
2021/12/04 05:30:17;;;;;;;20.98;15.20;;;;;;;;;;5056599;28;20048;-79
2021/12/04 05:32:43;;;;;;;21.75;14.90;;;;;;;;;;5056080;28;20624;-78
2021/12/04 05:35:09;;;;;;;20.85;14.95;;;;;;;;;;5053269;28;20063;-78
2021/12/04 05:37:35;;;;;;;24.67;16.00;;;;;;;;;;5057363;28;20505;-78
2021/12/04 05:40:01;;;;;;;24.63;16.15;;;;;;;;;;5050201;28;20048;-78
2021/12/04 05:42:29;;;;;;;22.05;14.93;;;;;;;;;;5057864;28;20044;-78
2021/12/04 05:44:55;;;;;;;25.55;15.55;;;;;;;;;;5042303;28;20803;-78
2021/12/04 05:47:26;;;;;;;25.98;16.15;;;;;;;;;;5037330;28;20206;-79
2021/12/04 05:50:15;;;;;;;24.92;15.90;;;;;;;;;;5058418;28;20588;-79
2021/12/04 05:53:27;;;;;;;22.95;14.82;;;;;;;;;;5056167;28;20461;-79
2021/12/04 05:55:26;;;;;;;22.85;16.10;;;;;;;;;;5033199;28;20135;-78
2021/12/04 05:57:52;;;;;;;23.48;15.35;;;;;;;;;;5040639;28;20036;-78
2021/12/04 06:00:19;;;;;;;25.73;16.33;;;;;;;;;;5050371;28;20600;-76
2021/12/04 06:02:45;;;;;;;23.75;16.25;;;;;;;;;;5057281;28;20462;-76
2021/12/04 06:05:12;;;;;;;21.88;15.23;;;;;;;;;;5020305;28;20047;-76
2021/12/04 06:07:38;;;;;;;24.48;15.10;;;;;;;;;;5024130;28;20036;-76
2021/12/04 06:10:04;;;;;;;19.17;14.60;;;;;;;;;;5050403;28;20509;-76
2021/12/04 06:12:30;;;;;;;22.00;14.35;;;;;;;;;;5052351;28;20398;-76
2021/12/04 06:14:56;;;;;;;19.98;14.68;;;;;;;;;;5037093;28;20084;-76
2021/12/04 06:17:25;;;;;;;25.83;16.00;;;;;;;;;;5056671;28;20071;-78
2021/12/04 06:22:38;;;;;;;21.23;14.50;;;;;;;;;;5045774;28;20048;-76
2021/12/04 06:25:06;;;;;;;23.08;15.50;;;;;;;;;;5066610;28;20078;-76
2021/12/04 06:27:32;;;;;;;21.20;15.13;;;;;;;;;;5069184;28;20176;-76
2021/12/04 06:30:05;;;;;;;19.30;14.52;;;;;;;;;;5052476;28;20036;-76
2021/12/04 06:32:31;;;;;;;18.80;14.20;;;;;;;;;;5068114;28;20375;-75
2021/12/04 06:34:58;;;;;;;22.42;15.65;;;;;;;;;;5072911;28;20035;-76
2021/12/04 06:37:24;;;;;;;23.55;15.27;;;;;;;;;;5071200;28;20051;-76
2021/12/04 06:39:50;;;;;;;23.45;14.93;;;;;;;;;;5071450;28;20127;-76
2021/12/04 06:42:17;;;;;;;21.27;15.43;;;;;;;;;;5051485;28;20710;-76
2021/12/04 06:44:43;;;;;;;23.13;15.27;;;;;;;;;;5072258;28;20048;-76
2021/12/04 06:47:10;;;;;;;21.80;15.75;;;;;;;;;;5068362;28;20496;-76
2021/12/04 06:49:40;;;;;;;24.02;15.60;;;;;;;;;;5074796;28;20043;-77
2021/12/04 06:52:11;;;;;;;21.10;15.73;;;;;;;;;;5050638;28;20475;-76
2021/12/04 06:54:40;;;;;;;23.10;15.55;;;;;;;;;;5071621;28;20043;-76
2021/12/04 06:57:11;;;;;;;24.02;16.35;;;;;;;;;;5068161;28;20478;-76
2021/12/04 06:59:39;;;;;;;23.27;16.35;;;;;;;;;;5073086;28;20040;-76
2021/12/04 07:02:05;;;;;;;22.15;16.10;;;;;;;;;;5053830;28;20061;-75
2021/12/04 07:04:37;;;;;;;25.80;17.60;;;;;;;;;;5083107;28;20044;-76
2021/12/04 07:07:07;;;;;;;22.35;15.60;;;;;;;;;;5055333;28;20036;-76
2021/12/04 07:09:34;;;;;;;25.05;16.45;;;;;;;;;;5075708;28;20064;-76
2021/12/04 07:12:00;;;;;;;25.48;15.80;;;;;;;;;;5072432;28;20474;-76
2021/12/04 07:14:29;;;;;;;25.48;16.65;;;;;;;;;;5073798;28;20055;-76
2021/12/04 07:17:01;;;;;;;23.95;16.00;;;;;;;;;;5076236;28;20090;-76
2021/12/04 07:19:27;;;;;;;27.05;17.15;;;;;;;;;;5057709;28;20051;-76
2021/12/04 07:21:53;;;;;;;29.58;16.15;;;;;;;;;;5075050;28;20588;-76
2021/12/04 07:24:19;;;;;;;24.58;15.52;;;;;;;;;;5074769;28;20075;-77
2021/12/04 07:26:45;;;;;;;28.23;17.15;;;;;;;;;;5067989;27;20044;-76
2021/12/04 07:29:11;;;;;;;25.65;15.93;;;;;;;;;;5043820;28;20035;-76
2021/12/04 07:31:38;;;;;;;28.92;16.70;;;;;;;;;;5097364;27;20122;-76
2021/12/04 07:34:04;;;;;;;25.10;16.02;;;;;;;;;;5072730;27;20055;-77
2021/12/04 07:36:30;;;;;;;24.90;15.55;;;;;;;;;;5072855;27;20616;-76
2021/12/04 07:39:00;;;;;;;22.63;15.00;;;;;;;;;;5093330;27;20112;-76
2021/12/04 07:41:27;;;;;;;20.15;14.07;;;;;;;;;;5044917;28;20054;-76
2021/12/04 07:43:53;;;;;;;20.10;15.32;;;;;;;;;;5061381;27;20044;-76
2021/12/04 07:46:19;;;;;;;18.35;12.98;;;;;;;;;;5078145;28;20547;-76
2021/12/04 07:48:45;;;;;;;17.33;12.57;;;;;;;;;;5080592;28;20039;-75
2021/12/04 07:51:11;;;;;;;18.20;12.52;;;;;;;;;;5075630;27;20524;-76
2021/12/04 07:53:37;;;;;;;17.55;13.32;;;;;;;;;;5062497;27;20047;-76
2021/12/04 07:56:04;;;;;;;17.58;12.35;;;;;;;;;;5074129;27;20198;-76
2021/12/04 07:58:30;;;;;;;16.95;13.15;;;;;;;;;;5078726;28;20075;-76
2021/12/04 08:00:57;;;;;;;19.17;13.27;;;;;;;;;;5059838;27;20044;-75
2021/12/04 08:03:23;;;;;;;19.83;14.68;;;;;;;;;;5063571;27;20043;-76
2021/12/04 08:05:50;;;;;;;20.33;14.15;;;;;;;;;;5074606;28;20139;-76
2021/12/04 08:08:16;;;;;;;21.55;14.52;;;;;;;;;;5058465;28;20134;-76
2021/12/04 08:10:43;;;;;;;24.20;15.35;;;;;;;;;;5062002;28;20430;-75
2021/12/04 08:13:23;;;;;;;23.98;14.77;;;;;;;;;;5052169;28;20051;-75
2021/12/04 08:16:04;;;;;;;24.50;16.23;;;;;;;;;;5049380;27;20085;-75
2021/12/04 08:18:46;;;;;;;24.23;16.17;;;;;;;;;;5079221;28;20523;-75
2021/12/04 08:21:24;;;;;;;23.02;16.42;;;;;;;;;;5081476;27;20050;-74
2021/12/04 08:23:50;;;;;;;21.60;16.27;;;;;;;;;;5064754;27;20062;-76
2021/12/04 08:26:58;;;;;;;29.13;17.48;;;;;;;;;;5095097;27;20046;-77
2021/12/04 08:29:27;;;;;;;28.20;18.05;;;;;;;;;;5076839;28;20047;-74
2021/12/04 08:31:53;;;;;;;30.73;18.65;;;;;;;;;;5060935;28;20044;-73
2021/12/04 08:34:20;;;;;;;30.95;18.67;;;;;;;;;;5089591;27;20047;-73
2021/12/04 08:37:15;;;;;;;36.28;20.17;;;;;;;;;;5048365;28;20054;-74
2021/12/04 08:39:43;;;;;;;30.58;18.75;;;;;;;;;;5030254;28;20083;-75
2021/12/04 08:42:09;;;;;;;32.58;18.38;;;;;;;;;;5013113;28;20048;-75
2021/12/04 08:44:38;;;;;;;33.08;18.63;;;;;;;;;;5018817;28;20100;-74
2021/12/04 08:47:28;;;;;;;34.20;19.23;;;;;;;;;;5050139;28;20443;-74
2021/12/04 08:49:56;;;;;;;31.60;18.63;;;;;;;;;;5027202;28;20120;-74
2021/12/04 08:52:28;;;;;;;32.60;18.70;;;;;;;;;;5003945;28;20437;-74
2021/12/04 08:54:54;;;;;;;32.47;18.92;;;;;;;;;;5023795;28;20056;-74
2021/12/04 08:57:54;;;;;;;36.00;19.17;;;;;;;;;;5011567;28;20581;-74
2021/12/04 09:00:25;;;;;;;31.80;18.70;;;;;;;;;;5014141;28;20419;-74
2021/12/04 09:02:52;;;;;;;28.40;17.33;;;;;;;;;;5001449;28;20046;-74
2021/12/04 09:05:24;;;;;;;32.28;17.88;;;;;;;;;;4983182;28;20573;-74
2021/12/04 09:11:20;;;;;;;27.35;16.45;;;;;;;;;;5032305;28;20048;-76
2021/12/04 09:14:46;;;;;;;;;;;;;;;;;;;;;
2021/12/04 09:18:06;;;;;;;21.60;14.32;;;;;;;;;;4986833;28;20145;-75
2021/12/04 09:24:17;;;;;;;25.13;14.77;;;;;;;;;;5012267;28;20128;-75
2021/12/04 09:26:58;;;;;;;22.42;14.02;;;;;;;;;;5002722;28;20150;-73
2021/12/04 09:32:26;;;;;;;26.40;15.57;;;;;;;;;;5038293;28;20461;-74
2021/12/04 10:00:48;;;;;;;24.23;14.95;;;;;;;;;;5064747;28;20065;-73
2021/12/04 10:22:32;;;;;;;26.90;16.35;;;;;;;;;;5085585;28;20486;-75
2021/12/04 10:33:21;;;;;;;28.00;16.45;;;;;;;;;;5078701;28;20040;-76
2021/12/04 10:35:48;;;;;;;29.58;16.08;;;;;;;;;;5067228;28;20449;-76
2021/12/04 10:38:25;;;;;;;34.88;17.90;;;;;;;;;;5065784;28;20043;-76
2021/12/04 10:40:55;;;;;;;33.22;18.40;;;;;;;;;;5052719;28;20039;-75
2021/12/04 10:43:24;;;;;;;35.20;19.73;;;;;;;;;;5067984;27;20088;-75
2021/12/04 10:45:52;;;;;;;36.88;19.13;;;;;;;;;;5104288;27;20485;-75
2021/12/04 10:48:30;;;;;;;34.17;18.63;;;;;;;;;;5089700;28;20096;-75
2021/12/04 10:51:21;;;;;;;34.08;19.27;;;;;;;;;;5070297;28;20035;-76
2021/12/04 10:53:56;;;;;;;31.38;17.73;;;;;;;;;;5072062;28;20055;-75
2021/12/04 10:59:43;;;;;;;32.60;19.13;;;;;;;;;;5072570;28;20314;-75
2021/12/04 11:04:49;;;;;;;35.15;18.75;;;;;;;;;;5064420;27;20055;-76
2021/12/04 11:07:52;;;;;;;34.13;18.40;;;;;;;;;;5077821;27;21010;-77
2021/12/04 11:42:55;;;;;;;36.42;20.77;;;;;;;;;;5078902;27;20051;-76
2021/12/04 11:48:04;;;;;;;34.03;20.00;;;;;;;;;;5057676;28;20112;-75
2021/12/04 11:50:44;;;;;;;;;;;;;;;;;;;;;
2021/12/04 11:53:16;;;;;;;34.00;21.80;;;;;;;;;;5076731;28;20048;-75
2021/12/04 11:56:02;;;;;;;36.47;21.92;;;;;;;;;;5049457;28;20049;-76
2021/12/04 11:58:33;;;;;;;36.63;22.08;;;;;;;;;;5059448;28;20106;-76
2021/12/04 12:01:19;;;;;;;36.38;22.73;;;;;;;;;;5059612;27;20136;-76
2021/12/04 12:04:22;;;;;;;41.83;23.92;;;;;;;;;;5076200;28;20410;-76
2021/12/04 12:07:10;;;;;;;;;;;;;;;;;;;;;
2021/12/04 12:09:45;;;;;;;42.83;24.45;;;;;;;;;;5073377;27;20048;-76
2021/12/04 12:12:33;;;;;;;;;;;;;;;;;;;;;
2021/12/04 12:15:32;;;;;;;45.92;26.17;;;;;;;;;;5048932;27;20048;-76
2021/12/04 12:18:15;;;;;;;49.22;27.23;;;;;;;;;;5032538;28;20033;-76
2021/12/04 12:21:04;;;;;;;;;;;;;;;;;;;;;
2021/12/04 12:23:40;;;;;;;48.33;27.05;;;;;;;;;;5021456;28;20085;-78
2021/12/04 12:26:28;;;;;;;50.13;27.75;;;;;;;;;;4959636;28;20047;-77
2021/12/04 12:32:54;;;;;;;54.13;29.73;;;;;;;;;;4964563;28;20056;-79
2021/12/04 12:37:49;;;;;;;63.58;31.10;;;;;;;;;;4977341;28;20520;-79
2021/12/04 12:40:19;;;;;;;69.32;33.80;;;;;;;;;;4993257;28;20518;-76
2021/12/04 12:42:48;;;;;;;74.57;34.33;;;;;;;;;;4999208;28;20045;-76
2021/12/04 12:45:14;;;;;;;;;;;;;;;;;;4968551;28;20054;-76
2021/12/04 12:47:49;;;;;;;71.55;32.97;;;;;;;;;;4970489;28;19925;-76
2021/12/04 12:50:37;;;;;;;69.95;31.90;;;;;;;;;;5015857;28;20483;-76
2021/12/04 12:53:11;;;;;;;64.40;30.73;;;;;;;;;;5044868;28;20094;-77
2021/12/04 12:55:47;;;;;;;66.03;30.58;;;;;;;;;;5037074;28;20093;-76
2021/12/04 13:20:05;;;;;;;55.33;27.65;;;;;;;;;;5026620;28;20132;-76
2021/12/04 13:22:45;;;;;;;61.08;29.27;;;;;;;;;;5022741;28;20719;-77
2021/12/04 13:25:31;;;;;;;52.90;27.73;;;;;;;;;;5047284;28;20049;-78
2021/12/04 13:38:48;;;;;;;49.95;25.27;;;;;;;;;;5029269;28;20048;-75
2021/12/04 13:41:18;;;;;;;48.97;24.98;;;;;;;;;;5019947;28;20075;-78
2021/12/04 13:43:52;;;;;;;50.97;24.83;;;;;;;;;;5017507;28;20155;-77
2021/12/04 13:46:37;;;;;;;49.80;26.40;;;;;;;;;;5049614;28;20048;-77
2021/12/04 13:49:10;;;;;;;52.88;26.58;;;;;;;;;;5016635;28;20050;-76
2021/12/04 13:51:36;;;;;;;49.42;25.55;;;;;;;;;;5025773;28;20044;-79
2021/12/04 13:57:48;;;;;;;57.08;28.98;;;;;;;;;;4989478;28;20080;-78
2021/12/04 14:03:53;;;;;;;;;;;;;;;;;;;;;
2021/12/04 14:07:02;;;;;;;50.58;27.17;;;;;;;;;;4995324;28;20053;-78
2021/12/04 14:10:05;;;;;;;55.45;28.70;;;;;;;;;;4977080;28;20543;-78
2021/12/04 14:13:14;;;;;;;56.05;28.38;;;;;;;;;;4937158;28;20498;-77
2021/12/04 14:16:30;;;;;;;57.55;28.67;;;;;;;;;;5047168;28;20080;-78
2021/12/04 14:23:19;;;;;;;63.97;28.83;;;;;;;;;;5018551;28;20056;-77
2021/12/04 14:29:47;;;;;;;68.03;32.60;;;;;;;;;;5064810;28;20032;-77
2021/12/04 14:32:53;;;;;;;59.53;28.55;;;;;;;;;;5084376;28;20054;-79
2021/12/04 14:35:50;;;;;;;65.57;31.35;;;;;;;;;;5050458;28;20052;-79
2021/12/04 14:38:26;;;;;;;67.05;29.88;;;;;;;;;;5042286;28;20394;-78
2021/12/04 14:40:52;;;;;;;71.10;33.65;;;;;;;;;;5074758;28;20043;-79
2021/12/04 14:43:19;;;;;;;74.68;32.33;;;;;;;;;;5056550;28;20106;-79
2021/12/04 14:45:47;;;;;;;78.65;31.70;;;;;;;;;;5058182;28;20031;-80
2021/12/04 14:48:17;;;;;;;68.70;31.35;;;;;;;;;;5040170;28;20043;-80
2021/12/04 14:50:44;;;;;;;70.35;31.52;;;;;;;;;;5060640;28;20478;-79
2021/12/04 14:53:40;;;;;;;79.90;33.95;;;;;;;;;;5069439;28;20081;-77
2021/12/04 15:06:40;;;;;;;62.40;30.40;;;;;;;;;;4995150;28;20049;-78
2021/12/04 15:09:11;;;;;;;73.25;31.30;;;;;;;;;;5013178;28;20053;-78
2021/12/04 15:11:41;;;;;;;76.40;42.95;;;;;;;;;;5004318;28;20049;-77
2021/12/04 15:14:09;;;;;;;67.93;33.33;;;;;;;;;;4996872;28;20052;-77
2021/12/04 15:16:46;;;;;;;80.28;44.55;;;;;;;;;;5018323;28;20072;-78
2021/12/04 15:19:39;;;;;;;75.43;33.28;;;;;;;;;;4997537;28;20045;-77
2021/12/04 15:22:07;;;;;;;79.47;33.00;;;;;;;;;;5014473;28;20049;-78
2021/12/04 15:24:37;;;;;;;76.13;33.50;;;;;;;;;;4996219;28;20110;-78
2021/12/04 15:27:08;;;;;;;71.63;31.95;;;;;;;;;;4979752;28;20053;-81
2021/12/04 15:29:38;;;;;;;68.97;32.35;;;;;;;;;;5017936;28;20527;-82
2021/12/04 15:32:12;;;;;;;77.50;32.10;;;;;;;;;;5045095;28;20041;-80
2021/12/04 15:34:49;;;;;;;77.70;40.75;;;;;;;;;;5022372;28;20507;-80
2021/12/04 15:37:37;;;;;;;70.35;34.67;;;;;;;;;;5063640;27;20096;-79
2021/12/04 15:40:34;;;;;;;69.10;34.88;;;;;;;;;;5068235;28;20494;-79
2021/12/04 15:55:28;;;;;;;85.95;34.65;;;;;;;;;;5056999;27;20520;-77
2021/12/04 15:57:58;;;;;;;72.20;34.40;;;;;;;;;;5039297;27;20085;-77
2021/12/04 16:00:30;;;;;;;65.82;32.95;;;;;;;;;;5057616;27;20043;-78
2021/12/04 16:03:10;;;;;;;62.88;32.15;;;;;;;;;;5092181;27;20140;-78
2021/12/04 16:06:09;;;;;;;65.10;33.90;;;;;;;;;;5077960;28;20039;-78
2021/12/04 16:09:02;;;;;;;77.20;33.38;;;;;;;;;;5033814;28;20093;-79
2021/12/04 16:11:35;;;;;;;91.28;48.20;;;;;;;;;;5070237;28;20043;-77
2021/12/04 16:14:11;;;;;;;90.25;38.08;;;;;;;;;;5054997;27;20443;-77
2021/12/04 16:20:17;;;;;;;;;;;;;;;;;;5068495;27;20127;-77
2021/12/04 16:26:46;;;;;;;69.35;33.25;;;;;;;;;;5058237;28;20046;-78
2021/12/04 16:29:46;;;;;;;;;;;;;;;;;;;;;
2021/12/04 16:32:40;;;;;;;73.60;33.45;;;;;;;;;;5037093;28;20055;-78
2021/12/04 16:39:24;;;;;;;72.07;35.03;;;;;;;;;;5044062;28;20066;-78
2021/12/04 17:07:25;;;;;;;45.65;29.30;;;;;;;;;;4982216;28;20036;-80
2021/12/04 17:18:15;;;;;;;52.90;33.80;;;;;;;;;;4927436;28;20043;-80
2021/12/04 17:20:57;;;;;;;51.15;34.08;;;;;;;;;;4979879;28;20041;-80
2021/12/04 17:23:33;;;;;;;41.97;28.88;;;;;;;;;;5027507;28;20180;-79
2021/12/04 17:26:33;;;;;;;53.88;33.05;;;;;;;;;;5012648;28;20048;-79
2021/12/04 17:29:11;;;;;;;50.03;35.47;;;;;;;;;;5005607;28;20059;-78
2021/12/04 17:31:41;;;;;;;45.13;29.48;;;;;;;;;;5077191;28;20096;-79
2021/12/04 17:34:08;;;;;;;43.58;29.27;;;;;;;;;;5052403;27;20048;-79
2021/12/04 17:36:38;;;;;;;45.20;30.08;;;;;;;;;;5055603;28;20123;-78
2021/12/04 17:39:15;;;;;;;46.50;30.83;;;;;;;;;;5037062;28;20490;-79
2021/12/04 17:41:51;;;;;;;41.15;28.20;;;;;;;;;;5071769;28;20085;-78
2021/12/04 17:44:23;;;;;;;42.13;28.40;;;;;;;;;;5039865;27;20071;-79
2021/12/04 17:47:01;;;;;;;42.20;29.10;;;;;;;;;;5050691;27;20044;-79
2021/12/04 17:49:35;;;;;;;41.20;28.40;;;;;;;;;;5042799;27;20036;-78
2021/12/04 17:52:02;;;;;;;44.22;27.55;;;;;;;;;;5039721;27;20520;-78
2021/12/04 17:54:30;;;;;;;41.97;27.25;;;;;;;;;;5057309;28;20050;-79
2021/12/04 17:57:13;;;;;;;46.42;29.75;;;;;;;;;;5063982;27;20044;-79
2021/12/04 17:59:40;;;;;;;41.17;27.30;;;;;;;;;;5072100;28;20040;-80
2021/12/04 18:02:12;;;;;;;40.45;26.77;;;;;;;;;;5051103;28;20047;-79
2021/12/04 18:04:51;;;;;;;41.97;27.25;;;;;;;;;;5052613;28;20047;-78
2021/12/04 18:07:27;;;;;;;37.28;25.65;;;;;;;;;;5082803;27;20480;-78
2021/12/04 18:10:02;;;;;;;39.30;24.80;;;;;;;;;;5035554;27;20071;-78
2021/12/04 18:12:49;;;;;;;42.00;26.25;;;;;;;;;;5057619;27;20505;-78
2021/12/04 18:16:00;;;;;;;37.90;26.02;;;;;;;;;;5055509;28;20152;-79
2021/12/04 18:18:22;;;;;;;38.00;25.98;;;;;;;;;;5035808;28;20086;-78
2021/12/04 18:20:48;;;;;;;41.45;24.85;;;;;;;;;;5042951;28;20074;-77
2021/12/04 18:23:36;;;;;;;38.60;25.13;;;;;;;;;;5057738;27;20138;-79
2021/12/04 18:26:11;;;;;;;44.13;28.98;;;;;;;;;;5054487;28;20048;-79
2021/12/04 18:28:46;;;;;;;;;;;;;;;;;;5042058;28;20059;-78
2021/12/04 18:31:24;;;;;;;43.72;29.70;;;;;;;;;;5035766;28;19919;-79
2021/12/04 18:34:02;;;;;;;42.90;26.52;;;;;;;;;;5085031;28;20043;-79
2021/12/04 18:36:42;;;;;;;44.03;27.15;;;;;;;;;;5036816;28;20052;-78
2021/12/04 18:39:12;;;;;;;40.45;25.52;;;;;;;;;;5047012;28;20079;-77
2021/12/04 18:41:39;;;;;;;37.65;24.40;;;;;;;;;;5055368;28;20109;-79
2021/12/04 18:44:17;;;;;;;36.42;23.25;;;;;;;;;;5027366;28;20507;-79
2021/12/04 18:46:45;;;;;;;34.28;22.40;;;;;;;;;;5046088;28;20041;-79
2021/12/04 18:49:13;;;;;;;36.47;22.80;;;;;;;;;;5032201;28;20105;-77
2021/12/04 18:51:49;;;;;;;;;;;;;;;;;;5039262;28;20051;-77
2021/12/04 18:54:15;;;;;;;37.00;23.70;;;;;;;;;;5038725;28;19924;-77
2021/12/04 18:59:54;;;;;;;47.85;32.33;;;;;;;;;;5057094;28;20492;-79
2021/12/04 19:02:39;;;;;;;50.33;33.53;;;;;;;;;;5062219;28;20051;-79
2021/12/04 19:05:27;;;;;;;45.13;29.30;;;;;;;;;;5041368;28;20040;-79
2021/12/04 19:07:53;;;;;;;45.22;27.55;;;;;;;;;;5039149;28;20079;-77
2021/12/04 19:10:35;;;;;;;48.70;30.42;;;;;;;;;;5019232;28;20173;-79
2021/12/04 19:13:31;;;;;;;46.50;27.90;;;;;;;;;;5054761;28;20434;-78
2021/12/04 19:16:00;;;;;;;39.80;24.42;;;;;;;;;;5040039;28;20040;-80
2021/12/04 19:18:52;;;;;;;34.17;22.38;;;;;;;;;;5064745;28;20098;-78
2021/12/04 19:21:19;;;;;;;38.55;23.90;;;;;;;;;;5056451;28;20454;-77
2021/12/04 19:23:54;;;;;;;36.70;23.05;;;;;;;;;;5024365;28;20047;-76
2021/12/04 19:26:28;;;;;;;37.30;23.05;;;;;;;;;;5037475;28;20036;-78
2021/12/04 19:28:56;;;;;;;32.78;22.02;;;;;;;;;;5038343;28;20048;-79
2021/12/04 19:31:27;;;;;;;32.47;19.67;;;;;;;;;;5076171;28;20051;-78
2021/12/04 19:34:57;;;;;;;38.60;22.65;;;;;;;;;;5046120;28;20484;-78
2021/12/04 19:51:35;;;;;;;30.58;18.52;;;;;;;;;;5058024;27;20051;-80
2021/12/04 19:54:21;;;;;;;34.97;19.17;;;;;;;;;;5055728;28;20054;-80
2021/12/04 19:56:51;;;;;;;28.23;17.00;;;;;;;;;;5066236;27;20078;-80
2021/12/04 19:59:20;;;;;;;27.63;18.23;;;;;;;;;;5074345;27;20665;-82
2021/12/04 20:15:06;;;;;;;32.00;17.15;;;;;;;;;;5093585;27;20054;-76
2021/12/04 20:17:32;;;;;;;30.02;17.27;;;;;;;;;;5104108;27;20067;-79
2021/12/04 20:19:59;;;;;;;32.38;18.67;;;;;;;;;;5074160;27;20054;-77
2021/12/04 20:22:26;;;;;;;32.70;20.02;;;;;;;;;;5041946;28;20097;-78